sensor_id;sensor_type;location;lat;lon;timestamp;pressure;altitude;pressure_sealevel;temperature;humidity
56182;BME280;51963;46.052;14.544;2023-10-09T00:01:28;99264.41;;;12.41;100.00
56182;BME280;51963;46.052;14.544;2023-10-09T00:03:59;99266.47;;;12.31;100.00
56182;BME280;51963;46.052;14.544;2023-10-09T00:06:29;99275.72;;;12.35;100.00
56182;BME280;51963;46.052;14.544;2023-10-09T00:09:04;99251.66;;;12.13;100.00
56182;BME280;51963;46.052;14.544;2023-10-09T00:11:45;99267.47;;;12.30;100.00
56182;BME280;51963;46.052;14.544;2023-10-09T00:14:11;99266.41;;;12.39;100.00
56182;BME280;51963;46.052;14.544;2023-10-09T00:16:37;99268.41;;;12.37;100.00
56182;BME280;51963;46.052;14.544;2023-10-09T00:19:12;99267.16;;;12.48;100.00
56182;BME280;51963;46.052;14.544;2023-10-09T00:21:47;99270.06;;;12.38;100.00
56182;BME280;51963;46.052;14.544;2023-10-09T00:24:13;99259.81;;;12.35;100.00
56182;BME280;51963;46.052;14.544;2023-10-09T00:26:40;99258.59;;;12.38;100.00
56182;BME280;51963;46.052;14.544;2023-10-09T00:29:12;99255.66;;;12.32;100.00
56182;BME280;51963;46.052;14.544;2023-10-09T00:31:52;99242.38;;;12.17;100.00
56182;BME280;51963;46.052;14.544;2023-10-09T00:34:29;99244.00;;;12.18;100.00
56182;BME280;51963;46.052;14.544;2023-10-09T00:36:56;99237.72;;;12.20;100.00
56182;BME280;51963;46.052;14.544;2023-10-09T00:39:34;99224.22;;;12.06;100.00
56182;BME280;51963;46.052;14.544;2023-10-09T00:42:09;99233.34;;;12.03;100.00
56182;BME280;51963;46.052;14.544;2023-10-09T00:44:38;99235.16;;;12.03;100.00
56182;BME280;51963;46.052;14.544;2023-10-09T00:47:12;99229.88;;;12.03;100.00
56182;BME280;51963;46.052;14.544;2023-10-09T00:50:08;99230.16;;;12.08;100.00
56182;BME280;51963;46.052;14.544;2023-10-09T00:52:52;99234.34;;;12.26;100.00
56182;BME280;51963;46.052;14.544;2023-10-09T00:55:31;99226.19;;;12.27;100.00
56182;BME280;51963;46.052;14.544;2023-10-09T00:58:14;99225.56;;;12.25;100.00
56182;BME280;51963;46.052;14.544;2023-10-09T01:00:42;99222.56;;;12.28;100.00
56182;BME280;51963;46.052;14.544;2023-10-09T01:03:16;99220.75;;;12.29;100.00
56182;BME280;51963;46.052;14.544;2023-10-09T01:05:48;99188.13;;;12.05;100.00
56182;BME280;51963;46.052;14.544;2023-10-09T01:08:39;99191.44;;;11.99;100.00
56182;BME280;51963;46.052;14.544;2023-10-09T01:11:06;99215.91;;;12.09;100.00
56182;BME280;51963;46.052;14.544;2023-10-09T01:13:40;99219.22;;;12.11;100.00
56182;BME280;51963;46.052;14.544;2023-10-09T01:16:32;99210.31;;;12.04;100.00
56182;BME280;51963;46.052;14.544;2023-10-09T01:18:58;99196.88;;;12.06;100.00
56182;BME280;51963;46.052;14.544;2023-10-09T01:21:25;99197.22;;;12.02;100.00
56182;BME280;51963;46.052;14.544;2023-10-09T01:23:53;99210.66;;;12.01;100.00
56182;BME280;51963;46.052;14.544;2023-10-09T01:26:46;99214.78;;;12.03;100.00
56182;BME280;51963;46.052;14.544;2023-10-09T01:29:23;99221.28;;;12.01;100.00
56182;BME280;51963;46.052;14.544;2023-10-09T01:31:54;99203.75;;;11.92;100.00
56182;BME280;51963;46.052;14.544;2023-10-09T01:34:28;99196.50;;;11.85;100.00
56182;BME280;51963;46.052;14.544;2023-10-09T01:37:04;99185.50;;;11.65;100.00
56182;BME280;51963;46.052;14.544;2023-10-09T01:39:58;99198.94;;;11.64;100.00
56182;BME280;51963;46.052;14.544;2023-10-09T01:42:25;99191.00;;;11.64;100.00
56182;BME280;51963;46.052;14.544;2023-10-09T01:45:11;99191.69;;;11.57;100.00
56182;BME280;51963;46.052;14.544;2023-10-09T01:47:40;99186.25;;;11.51;100.00
56182;BME280;51963;46.052;14.544;2023-10-09T01:50:07;99184.44;;;11.51;100.00
56182;BME280;51963;46.052;14.544;2023-10-09T01:52:45;99170.78;;;11.31;100.00
56182;BME280;51963;46.052;14.544;2023-10-09T01:55:11;99167.53;;;11.21;100.00
56182;BME280;51963;46.052;14.544;2023-10-09T01:58:15;99174.69;;;11.12;100.00
56182;BME280;51963;46.052;14.544;2023-10-09T02:00:47;99180.78;;;11.12;100.00
56182;BME280;51963;46.052;14.544;2023-10-09T02:03:23;99170.28;;;10.96;100.00
56182;BME280;51963;46.052;14.544;2023-10-09T02:05:55;99162.81;;;11.08;100.00
56182;BME280;51963;46.052;14.544;2023-10-09T02:08:30;99163.47;;;11.10;100.00
56182;BME280;51963;46.052;14.544;2023-10-09T02:11:00;99154.91;;;10.99;100.00
56182;BME280;51963;46.052;14.544;2023-10-09T02:13:28;99143.19;;;10.85;100.00
56182;BME280;51963;46.052;14.544;2023-10-09T02:16:00;99156.94;;;10.81;100.00
56182;BME280;51963;46.052;14.544;2023-10-09T02:18:46;99155.09;;;10.81;100.00
56182;BME280;51963;46.052;14.544;2023-10-09T02:21:22;99139.25;;;10.73;100.00
56182;BME280;51963;46.052;14.544;2023-10-09T02:24:05;99146.03;;;10.76;100.00
56182;BME280;51963;46.052;14.544;2023-10-09T02:26:51;99153.63;;;10.79;100.00
56182;BME280;51963;46.052;14.544;2023-10-09T02:29:17;99149.69;;;10.75;100.00
56182;BME280;51963;46.052;14.544;2023-10-09T02:31:43;99137.59;;;10.72;100.00
56182;BME280;51963;46.052;14.544;2023-10-09T02:34:13;99145.56;;;10.64;100.00
56182;BME280;51963;46.052;14.544;2023-10-09T02:36:41;99146.06;;;10.67;100.00
56182;BME280;51963;46.052;14.544;2023-10-09T02:39:15;99137.47;;;10.65;100.00
56182;BME280;51963;46.052;14.544;2023-10-09T02:42:07;99140.78;;;10.67;100.00
56182;BME280;51963;46.052;14.544;2023-10-09T02:44:52;99125.88;;;10.58;100.00
56182;BME280;51963;46.052;14.544;2023-10-09T02:47:19;99125.75;;;10.60;100.00
56182;BME280;51963;46.052;14.544;2023-10-09T02:49:55;99124.75;;;10.52;100.00
56182;BME280;51963;46.052;14.544;2023-10-09T02:52:32;99126.09;;;10.48;100.00
56182;BME280;51963;46.052;14.544;2023-10-09T02:55:07;99117.97;;;10.50;100.00
56182;BME280;51963;46.052;14.544;2023-10-09T02:57:42;99108.91;;;10.44;100.00
56182;BME280;51963;46.052;14.544;2023-10-09T03:00:10;99114.34;;;10.51;100.00
56182;BME280;51963;46.052;14.544;2023-10-09T03:10:45;99108.41;;;10.40;100.00
56182;BME280;51963;46.052;14.544;2023-10-09T03:13:13;99086.94;;;10.27;100.00
56182;BME280;51963;46.052;14.544;2023-10-09T03:15:52;99092.22;;;10.44;100.00
56182;BME280;51963;46.052;14.544;2023-10-09T03:18:20;99092.53;;;10.49;100.00
56182;BME280;51963;46.052;14.544;2023-10-09T03:20:54;99096.03;;;10.49;100.00
56182;BME280;51963;46.052;14.544;2023-10-09T03:23:21;99091.88;;;10.63;100.00
56182;BME280;51963;46.052;14.544;2023-10-09T03:25:47;99078.00;;;10.61;100.00
56182;BME280;51963;46.052;14.544;2023-10-09T03:28:12;99077.00;;;10.54;100.00
56182;BME280;51963;46.052;14.544;2023-10-09T03:31:10;99081.31;;;10.47;100.00
56182;BME280;51963;46.052;14.544;2023-10-09T03:33:36;99080.44;;;10.63;100.00
56182;BME280;51963;46.052;14.544;2023-10-09T03:36:02;99080.59;;;10.69;100.00
56182;BME280;51963;46.052;14.544;2023-10-09T03:38:33;99086.16;;;10.83;100.00
56182;BME280;51963;46.052;14.544;2023-10-09T03:41:03;99067.69;;;10.75;100.00
56182;BME280;51963;46.052;14.544;2023-10-09T03:43:33;99057.78;;;10.68;100.00
56182;BME280;51963;46.052;14.544;2023-10-09T03:50:36;99018.13;;;10.68;100.00
56182;BME280;51963;46.052;14.544;2023-10-09T03:54:36;99054.34;;;10.99;100.00
56182;BME280;51963;46.052;14.544;2023-10-09T03:57:08;99058.06;;;11.13;100.00
56182;BME280;51963;46.052;14.544;2023-10-09T03:59:34;99058.75;;;11.07;100.00
56182;BME280;51963;46.052;14.544;2023-10-09T04:02:00;99048.25;;;10.91;100.00
56182;BME280;51963;46.052;14.544;2023-10-09T04:04:26;99040.44;;;11.06;100.00
56182;BME280;51963;46.052;14.544;2023-10-09T04:06:53;99058.41;;;11.10;100.00
56182;BME280;51963;46.052;14.544;2023-10-09T04:09:19;99050.00;;;11.07;100.00
56182;BME280;51963;46.052;14.544;2023-10-09T04:11:49;99036.91;;;10.82;100.00
56182;BME280;51963;46.052;14.544;2023-10-09T04:14:25;99034.06;;;10.83;100.00
56182;BME280;51963;46.052;14.544;2023-10-09T04:16:52;99033.63;;;10.80;100.00
56182;BME280;51963;46.052;14.544;2023-10-09T04:19:18;99031.31;;;10.77;100.00
56182;BME280;51963;46.052;14.544;2023-10-09T04:21:48;99029.66;;;10.76;100.00
56182;BME280;51963;46.052;14.544;2023-10-09T04:24:14;99023.22;;;10.70;100.00
56182;BME280;51963;46.052;14.544;2023-10-09T04:26:40;99023.25;;;10.62;100.00
56182;BME280;51963;46.052;14.544;2023-10-09T04:29:16;99002.63;;;10.57;100.00
56182;BME280;51963;46.052;14.544;2023-10-09T04:32:03;99014.19;;;10.56;100.00
56182;BME280;51963;46.052;14.544;2023-10-09T04:34:35;99017.19;;;10.45;100.00
56182;BME280;51963;46.052;14.544;2023-10-09T04:37:04;99008.28;;;10.37;100.00
56182;BME280;51963;46.052;14.544;2023-10-09T04:39:40;99008.31;;;10.29;100.00
56182;BME280;51963;46.052;14.544;2023-10-09T04:42:11;99008.97;;;10.31;100.00
56182;BME280;51963;46.052;14.544;2023-10-09T04:45:05;98999.53;;;10.37;100.00
56182;BME280;51963;46.052;14.544;2023-10-09T04:47:35;98942.84;;;10.00;100.00
56182;BME280;51963;46.052;14.544;2023-10-09T04:50:08;98981.09;;;10.20;100.00
56182;BME280;51963;46.052;14.544;2023-10-09T04:52:37;98983.56;;;10.22;100.00
56182;BME280;51963;46.052;14.544;2023-10-09T04:55:03;98993.25;;;10.38;100.00
56182;BME280;51963;46.052;14.544;2023-10-09T05:00:17;98998.03;;;10.34;100.00
56182;BME280;51963;46.052;14.544;2023-10-09T05:02:52;98988.66;;;10.32;100.00
56182;BME280;51963;46.052;14.544;2023-10-09T05:05:26;98983.09;;;10.18;100.00
56182;BME280;51963;46.052;14.544;2023-10-09T05:11:00;98978.31;;;10.05;100.00
56182;BME280;51963;46.052;14.544;2023-10-09T05:13:33;98981.78;;;10.06;100.00
56182;BME280;51963;46.052;14.544;2023-10-09T05:16:15;98978.97;;;10.07;100.00
56182;BME280;51963;46.052;14.544;2023-10-09T05:18:46;98974.22;;;9.94;100.00
56182;BME280;51963;46.052;14.544;2023-10-09T05:21:26;98983.78;;;10.04;100.00
56182;BME280;51963;46.052;14.544;2023-10-09T05:24:04;98969.09;;;9.93;100.00
56182;BME280;51963;46.052;14.544;2023-10-09T05:29:25;98972.19;;;10.13;100.00
56182;BME280;51963;46.052;14.544;2023-10-09T05:31:54;98972.19;;;10.13;100.00
56182;BME280;51963;46.052;14.544;2023-10-09T05:34:39;98977.84;;;10.02;100.00
56182;BME280;51963;46.052;14.544;2023-10-09T05:37:24;98971.38;;;10.04;100.00
56182;BME280;51963;46.052;14.544;2023-10-09T05:39:52;98972.81;;;10.23;100.00
56182;BME280;51963;46.052;14.544;2023-10-09T05:42:44;98969.34;;;10.23;100.00
56182;BME280;51963;46.052;14.544;2023-10-09T05:45:15;98963.72;;;10.26;100.00
56182;BME280;51963;46.052;14.544;2023-10-09T05:47:51;98974.59;;;10.39;100.00
56182;BME280;51963;46.052;14.544;2023-10-09T05:50:30;98965.66;;;10.40;100.00
56182;BME280;51963;46.052;14.544;2023-10-09T05:53:25;98966.97;;;10.36;100.00
56182;BME280;51963;46.052;14.544;2023-10-09T05:56:09;98971.91;;;10.48;100.00
56182;BME280;51963;46.052;14.544;2023-10-09T05:58:54;98958.31;;;10.59;100.00
56182;BME280;51963;46.052;14.544;2023-10-09T06:01:32;98965.78;;;10.55;100.00
56182;BME280;51963;46.052;14.544;2023-10-09T06:04:16;98959.75;;;10.70;100.00
56182;BME280;51963;46.052;14.544;2023-10-09T06:06:43;98962.59;;;10.68;100.00
56182;BME280;51963;46.052;14.544;2023-10-09T06:09:20;98958.97;;;10.69;100.00
56182;BME280;51963;46.052;14.544;2023-10-09T06:11:48;98957.56;;;10.82;100.00
56182;BME280;51963;46.052;14.544;2023-10-09T06:14:23;98960.50;;;11.10;100.00
56182;BME280;51963;46.052;14.544;2023-10-09T06:17:12;98925.59;;;11.15;100.00
56182;BME280;51963;46.052;14.544;2023-10-09T06:20:05;98959.78;;;11.40;100.00
56182;BME280;51963;46.052;14.544;2023-10-09T06:22:50;98950.38;;;11.37;100.00
56182;BME280;51963;46.052;14.544;2023-10-09T06:25:22;98947.22;;;11.57;100.00
56182;BME280;51963;46.052;14.544;2023-10-09T06:27:52;98953.44;;;11.49;100.00
56182;BME280;51963;46.052;14.544;2023-10-09T06:30:18;98968.47;;;11.49;100.00
56182;BME280;51963;46.052;14.544;2023-10-09T06:32:43;98952.34;;;11.73;100.00
56182;BME280;51963;46.052;14.544;2023-10-09T06:35:35;98947.78;;;11.67;100.00
56182;BME280;51963;46.052;14.544;2023-10-09T06:38:01;98948.13;;;11.64;100.00
56182;BME280;51963;46.052;14.544;2023-10-09T06:40:32;98945.50;;;11.64;100.00
56182;BME280;51963;46.052;14.544;2023-10-09T06:43:20;98953.38;;;11.87;100.00
56182;BME280;51963;46.052;14.544;2023-10-09T06:45:51;98943.69;;;11.80;100.00
56182;BME280;51963;46.052;14.544;2023-10-09T06:48:24;98958.34;;;12.06;100.00
56182;BME280;51963;46.052;14.544;2023-10-09T06:51:09;98955.31;;;11.94;100.00
56182;BME280;51963;46.052;14.544;2023-10-09T06:54:02;98952.28;;;11.97;100.00
56182;BME280;51963;46.052;14.544;2023-10-09T06:56:43;98929.38;;;12.04;100.00
56182;BME280;51963;46.052;14.544;2023-10-09T06:59:18;98937.16;;;12.21;100.00
56182;BME280;51963;46.052;14.544;2023-10-09T07:01:52;98932.53;;;12.44;100.00
56182;BME280;51963;46.052;14.544;2023-10-09T07:04:40;98929.91;;;12.44;100.00
56182;BME280;51963;46.052;14.544;2023-10-09T07:07:06;98935.09;;;12.53;100.00
56182;BME280;51963;46.052;14.544;2023-10-09T07:09:38;98922.34;;;12.63;100.00
56182;BME280;51963;46.052;14.544;2023-10-09T07:12:32;98936.38;;;12.79;100.00
56182;BME280;51963;46.052;14.544;2023-10-09T07:15:01;98935.44;;;12.86;100.00
56182;BME280;51963;46.052;14.544;2023-10-09T07:17:50;98927.69;;;13.06;100.00
56182;BME280;51963;46.052;14.544;2023-10-09T07:20:18;98926.78;;;13.21;100.00
56182;BME280;51963;46.052;14.544;2023-10-09T07:23:03;98929.75;;;13.33;100.00
56182;BME280;51963;46.052;14.544;2023-10-09T07:25:41;98914.59;;;13.27;100.00
56182;BME280;51963;46.052;14.544;2023-10-09T07:28:11;98898.91;;;13.60;100.00
56182;BME280;51963;46.052;14.544;2023-10-09T07:31:18;98909.88;;;13.79;100.00
56182;BME280;51963;46.052;14.544;2023-10-09T07:33:51;98924.09;;;14.00;100.00
56182;BME280;51963;46.052;14.544;2023-10-09T07:36:23;98911.78;;;14.34;100.00
56182;BME280;51963;46.052;14.544;2023-10-09T07:39:01;98900.59;;;14.59;100.00
56182;BME280;51963;46.052;14.544;2023-10-09T07:41:31;98905.44;;;15.24;100.00
56182;BME280;51963;46.052;14.544;2023-10-09T07:43:57;98907.03;;;15.65;100.00
56182;BME280;51963;46.052;14.544;2023-10-09T07:46:23;98899.00;;;15.86;100.00
56182;BME280;51963;46.052;14.544;2023-10-09T07:49:07;98899.91;;;16.32;100.00
56182;BME280;51963;46.052;14.544;2023-10-09T07:51:41;98887.28;;;16.07;100.00
56182;BME280;51963;46.052;14.544;2023-10-09T07:54:15;98875.84;;;16.00;100.00
56182;BME280;51963;46.052;14.544;2023-10-09T07:56:49;98876.22;;;16.81;94.26
56182;BME280;51963;46.052;14.544;2023-10-09T07:59:18;98896.41;;;17.34;90.45
56182;BME280;51963;46.052;14.544;2023-10-09T08:01:47;98888.31;;;17.66;82.69
56182;BME280;51963;46.052;14.544;2023-10-09T08:04:23;98895.22;;;18.11;78.45
56182;BME280;51963;46.052;14.544;2023-10-09T08:07:08;98892.53;;;17.93;76.86
56182;BME280;51963;46.052;14.544;2023-10-09T08:09:35;98887.28;;;17.86;83.29
56182;BME280;51963;46.052;14.544;2023-10-09T08:12:15;98869.13;;;17.69;79.63
56182;BME280;51963;46.052;14.544;2023-10-09T08:15:04;98870.03;;;17.82;81.41
56182;BME280;51963;46.052;14.544;2023-10-09T08:20:38;98874.81;;;18.47;73.07
56182;BME280;51963;46.052;14.544;2023-10-09T08:23:22;98852.53;;;19.08;68.85
56182;BME280;51963;46.052;14.544;2023-10-09T08:26:03;98862.31;;;19.38;66.20
56182;BME280;51963;46.052;14.544;2023-10-09T08:28:53;98858.44;;;18.25;73.98
56182;BME280;51963;46.052;14.544;2023-10-09T08:31:20;98850.09;;;19.18;70.79
56182;BME280;51963;46.052;14.544;2023-10-09T08:34:11;98837.78;;;19.82;68.97
56182;BME280;51963;46.052;14.544;2023-10-09T08:36:50;98836.91;;;20.17;63.70
56182;BME280;51963;46.052;14.544;2023-10-09T08:39:19;98841.31;;;20.52;62.55
56182;BME280;51963;46.052;14.544;2023-10-09T08:41:53;98839.09;;;20.49;64.32
56182;BME280;51963;46.052;14.544;2023-10-09T08:44:23;98831.41;;;20.70;62.37
56182;BME280;51963;46.052;14.544;2023-10-09T08:46:51;98819.88;;;19.59;64.17
56182;BME280;51963;46.052;14.544;2023-10-09T08:49:17;98821.34;;;19.78;65.81
56182;BME280;51963;46.052;14.544;2023-10-09T08:51:44;98817.66;;;20.37;60.48
56182;BME280;51963;46.052;14.544;2023-10-09T08:54:11;98815.31;;;21.04;58.87
56182;BME280;51963;46.052;14.544;2023-10-09T08:56:40;98810.41;;;21.01;60.49
56182;BME280;51963;46.052;14.544;2023-10-09T08:59:16;98819.91;;;21.43;56.93
56182;BME280;51963;46.052;14.544;2023-10-09T09:01:48;98814.09;;;20.49;58.53
56182;BME280;51963;46.052;14.544;2023-10-09T09:04:39;98799.81;;;20.77;57.56
56182;BME280;51963;46.052;14.544;2023-10-09T09:07:25;98815.25;;;20.53;59.38
56182;BME280;51963;46.052;14.544;2023-10-09T09:09:58;98804.72;;;20.98;57.65
56182;BME280;51963;46.052;14.544;2023-10-09T09:12:43;98803.88;;;21.14;58.32
56182;BME280;51963;46.052;14.544;2023-10-09T09:15:16;98791.06;;;20.53;59.62
56182;BME280;51963;46.052;14.544;2023-10-09T09:17:47;98787.03;;;21.02;57.97
56182;BME280;51963;46.052;14.544;2023-10-09T09:20:23;98791.38;;;22.09;54.30
56182;BME280;51963;46.052;14.544;2023-10-09T09:22:58;98794.19;;;22.79;52.11
56182;BME280;51963;46.052;14.544;2023-10-09T09:25:24;98795.75;;;22.42;54.13
56182;BME280;51963;46.052;14.544;2023-10-09T09:27:53;98784.75;;;22.17;54.32
56182;BME280;51963;46.052;14.544;2023-10-09T09:30:27;98784.31;;;22.58;52.44
56182;BME280;51963;46.052;14.544;2023-10-09T09:33:19;98773.78;;;22.51;53.58
56182;BME280;51963;46.052;14.544;2023-10-09T09:36:03;98771.72;;;22.36;54.09
56182;BME280;51963;46.052;14.544;2023-10-09T09:38:32;98748.00;;;22.60;52.21
56182;BME280;51963;46.052;14.544;2023-10-09T09:41:18;98738.75;;;22.23;53.77
56182;BME280;51963;46.052;14.544;2023-10-09T09:43:57;98752.22;;;21.96;53.40
56182;BME280;51963;46.052;14.544;2023-10-09T09:46:46;98753.19;;;21.85;55.52
56182;BME280;51963;46.052;14.544;2023-10-09T09:49:12;98749.16;;;21.87;54.79
56182;BME280;51963;46.052;14.544;2023-10-09T09:51:50;98739.66;;;21.79;56.38
56182;BME280;51963;46.052;14.544;2023-10-09T09:54:16;98726.28;;;21.40;56.61
56182;BME280;51963;46.052;14.544;2023-10-09T09:56:52;98728.66;;;20.97;57.86
56182;BME280;51963;46.052;14.544;2023-10-09T09:59:23;98728.69;;;21.19;58.98
56182;BME280;51963;46.052;14.544;2023-10-09T10:01:55;98729.00;;;21.23;58.70
56182;BME280;51963;46.052;14.544;2023-10-09T10:04:33;98731.09;;;20.99;59.74
56182;BME280;51963;46.052;14.544;2023-10-09T10:07:06;98713.34;;;20.98;58.61
56182;BME280;51963;46.052;14.544;2023-10-09T10:09:41;98729.81;;;20.84;59.55
56182;BME280;51963;46.052;14.544;2023-10-09T10:12:11;98712.88;;;20.15;63.95
56182;BME280;51963;46.052;14.544;2023-10-09T10:14:54;98714.53;;;21.46;59.73
56182;BME280;51963;46.052;14.544;2023-10-09T10:17:25;98715.94;;;21.54;61.01
56182;BME280;51963;46.052;14.544;2023-10-09T10:20:06;98710.09;;;22.39;55.92
56182;BME280;51963;46.052;14.544;2023-10-09T10:22:44;98705.81;;;22.44;56.59
56182;BME280;51963;46.052;14.544;2023-10-09T10:25:36;98705.41;;;22.30;56.22
56182;BME280;51963;46.052;14.544;2023-10-09T10:28:23;98698.69;;;23.77;51.78
56182;BME280;51963;46.052;14.544;2023-10-09T10:31:01;98691.47;;;24.75;48.34
56182;BME280;51963;46.052;14.544;2023-10-09T10:34:08;98685.28;;;24.44;48.76
56182;BME280;51963;46.052;14.544;2023-10-09T10:36:36;98690.63;;;25.61;46.50
56182;BME280;51963;46.052;14.544;2023-10-09T10:39:09;98694.03;;;26.23;45.35
56182;BME280;51963;46.052;14.544;2023-10-09T10:41:57;98694.69;;;26.04;45.04
56182;BME280;51963;46.052;14.544;2023-10-09T10:44:35;98675.41;;;25.71;45.82
56182;BME280;51963;46.052;14.544;2023-10-09T10:47:05;98669.28;;;24.84;48.44
56182;BME280;51963;46.052;14.544;2023-10-09T10:49:49;98666.03;;;24.82;48.38
56182;BME280;51963;46.052;14.544;2023-10-09T10:52:23;98627.97;;;23.85;50.64
56182;BME280;51963;46.052;14.544;2023-10-09T10:55:18;98652.94;;;25.15;48.24
56182;BME280;51963;46.052;14.544;2023-10-09T10:57:56;98656.31;;;26.61;44.56
56182;BME280;51963;46.052;14.544;2023-10-09T11:00:29;98654.03;;;26.73;44.64
56182;BME280;51963;46.052;14.544;2023-10-09T11:03:20;98641.38;;;26.63;44.17
56182;BME280;51963;46.052;14.544;2023-10-09T11:06:09;98633.88;;;25.41;46.68
56182;BME280;51963;46.052;14.544;2023-10-09T11:08:49;98636.59;;;24.65;48.65
56182;BME280;51963;46.052;14.544;2023-10-09T11:11:22;98611.00;;;24.00;50.89
56182;BME280;51963;46.052;14.544;2023-10-09T11:13:50;98631.53;;;24.16;51.45
56182;BME280;51963;46.052;14.544;2023-10-09T11:16:25;98624.44;;;23.64;51.93
56182;BME280;51963;46.052;14.544;2023-10-09T11:19:19;98579.66;;;23.83;51.97
56182;BME280;51963;46.052;14.544;2023-10-09T11:21:55;98607.50;;;25.12;49.43
56182;BME280;51963;46.052;14.544;2023-10-09T11:24:35;98594.56;;;25.03;49.54
56182;BME280;51963;46.052;14.544;2023-10-09T11:27:02;98604.41;;;24.79;50.35
56182;BME280;51963;46.052;14.544;2023-10-09T11:29:36;98605.53;;;24.52;51.25
56182;BME280;51963;46.052;14.544;2023-10-09T11:32:19;98600.16;;;24.41;52.43
56182;BME280;51963;46.052;14.544;2023-10-09T11:34:48;98553.78;;;25.40;48.53
56182;BME280;51963;46.052;14.544;2023-10-09T11:37:19;98566.09;;;26.55;46.61
56182;BME280;51963;46.052;14.544;2023-10-09T11:39:59;98589.66;;;26.79;46.43
56182;BME280;51963;46.052;14.544;2023-10-09T11:43:00;98567.47;;;27.01;46.23
56182;BME280;51963;46.052;14.544;2023-10-09T11:45:27;98576.88;;;27.28;46.17
56182;BME280;51963;46.052;14.544;2023-10-09T11:47:57;98579.50;;;27.33;45.19
56182;BME280;51963;46.052;14.544;2023-10-09T11:50:44;98567.78;;;27.19;44.45
56182;BME280;51963;46.052;14.544;2023-10-09T11:53:40;98560.31;;;25.78;47.22
56182;BME280;51963;46.052;14.544;2023-10-09T11:56:09;98565.72;;;25.78;48.52
56182;BME280;51963;46.052;14.544;2023-10-09T11:58:40;98572.00;;;27.44;45.20
56182;BME280;51963;46.052;14.544;2023-10-09T12:01:13;98553.47;;;27.85;43.63
56182;BME280;51963;46.052;14.544;2023-10-09T12:03:43;98508.34;;;27.36;43.68
56182;BME280;51963;46.052;14.544;2023-10-09T12:06:15;98551.63;;;27.08;45.25
56182;BME280;51963;46.052;14.544;2023-10-09T12:08:45;98542.03;;;27.35;45.01
56182;BME280;51963;46.052;14.544;2023-10-09T12:11:15;98540.50;;;27.29;45.35
56182;BME280;51963;46.052;14.544;2023-10-09T12:13:48;98530.22;;;28.67;43.82
56182;BME280;51963;46.052;14.544;2023-10-09T12:16:14;98516.31;;;29.20;42.68
56182;BME280;51963;46.052;14.544;2023-10-09T12:18:41;98522.84;;;30.50;38.61
56182;BME280;51963;46.052;14.544;2023-10-09T12:21:08;98524.84;;;30.58;39.80
56182;BME280;51963;46.052;14.544;2023-10-09T12:23:41;98523.03;;;30.54;38.86
56182;BME280;51963;46.052;14.544;2023-10-09T12:26:09;98487.31;;;30.91;38.37
56182;BME280;51963;46.052;14.544;2023-10-09T12:28:41;98512.72;;;31.17;37.81
56182;BME280;51963;46.052;14.544;2023-10-09T12:31:12;98506.19;;;32.01;37.59
56182;BME280;51963;46.052;14.544;2023-10-09T12:33:41;98505.31;;;32.57;36.99
56182;BME280;51963;46.052;14.544;2023-10-09T12:36:11;98499.78;;;31.97;37.11
56182;BME280;51963;46.052;14.544;2023-10-09T12:38:43;98480.84;;;31.66;36.48
56182;BME280;51963;46.052;14.544;2023-10-09T12:41:11;98476.72;;;28.91;40.81
56182;BME280;51963;46.052;14.544;2023-10-09T12:43:56;98474.38;;;29.21;41.03
56182;BME280;51963;46.052;14.544;2023-10-09T12:46:25;98476.06;;;28.29;43.55
56182;BME280;51963;46.052;14.544;2023-10-09T12:48:52;98480.94;;;29.65;41.21
56182;BME280;51963;46.052;14.544;2023-10-09T12:51:20;98471.03;;;29.01;41.26
56182;BME280;51963;46.052;14.544;2023-10-09T12:53:51;98466.09;;;26.54;46.17
56182;BME280;51963;46.052;14.544;2023-10-09T12:56:23;98465.13;;;25.66;49.83
56182;BME280;51963;46.052;14.544;2023-10-09T12:59:02;98479.81;;;25.15;52.33
56182;BME280;51963;46.052;14.544;2023-10-09T13:01:36;98472.50;;;25.55;51.01
56182;BME280;51963;46.052;14.544;2023-10-09T13:04:09;98465.84;;;27.13;48.88
56182;BME280;51963;46.052;14.544;2023-10-09T13:06:40;98464.50;;;26.47;50.17
56182;BME280;51963;46.052;14.544;2023-10-09T13:09:13;98465.72;;;25.87;51.26
56182;BME280;51963;46.052;14.544;2023-10-09T13:11:40;98457.19;;;26.48;49.50
56182;BME280;51963;46.052;14.544;2023-10-09T13:14:06;98435.78;;;26.46;50.34
56182;BME280;51963;46.052;14.544;2023-10-09T13:16:48;98448.22;;;27.62;47.58
56182;BME280;51963;46.052;14.544;2023-10-09T13:19:16;98461.88;;;29.20;43.31
56182;BME280;51963;46.052;14.544;2023-10-09T13:21:43;98450.38;;;30.58;40.83
56182;BME280;51963;46.052;14.544;2023-10-09T13:24:11;98443.31;;;30.66;39.85
56182;BME280;51963;46.052;14.544;2023-10-09T13:26:42;98445.81;;;32.15;37.67
56182;BME280;51963;46.052;14.544;2023-10-09T13:29:10;98452.00;;;31.21;39.07
56182;BME280;51963;46.052;14.544;2023-10-09T13:31:37;98435.28;;;31.31;38.86
56182;BME280;51963;46.052;14.544;2023-10-09T13:34:05;98423.59;;;30.86;39.50
56182;BME280;51963;46.052;14.544;2023-10-09T13:36:32;98420.94;;;31.52;38.79
56182;BME280;51963;46.052;14.544;2023-10-09T13:39:03;98418.78;;;31.84;37.56
56182;BME280;51963;46.052;14.544;2023-10-09T13:41:55;98425.47;;;29.93;41.91
56182;BME280;51963;46.052;14.544;2023-10-09T13:46:56;98432.16;;;29.23;43.17
56182;BME280;51963;46.052;14.544;2023-10-09T13:49:25;98433.63;;;28.70;44.25
56182;BME280;51963;46.052;14.544;2023-10-09T13:52:01;98422.38;;;27.65;45.78
56182;BME280;51963;46.052;14.544;2023-10-09T13:54:34;98406.84;;;27.18;47.75